TAP1930 LPPT-LPPR
Flight info
| Callsign | TAP1930 |
|---|---|
| Flight time | N/A |
| Altitude | 22000 |
| Route | IXIDA DCT ABLEG |
| Aircraft | A21N/M-SDE2E3FGHIRWXY/LB1 |
Departure
| Time | 2026-05-06 10:22 |
|---|---|
| Airport | Lisbon Humberto Delgado Airport (LPPT) |
Arrival
| Time | N/A |
|---|---|
| Airport | Francisco de Sá Carneiro Airport (LPPR) |
| Time | Latitude | Longitude | Altitude | Speed | Heading |
|---|---|---|---|---|---|
| 2026-05-06 09:38 | 38.76884 | -9.13587 | 358 ft | 0 kts | 258° |
| 2026-05-06 09:46 | 38.76884 | -9.13586 | 352 ft | 0 kts | 258° |
| 2026-05-06 09:57 | 38.76884 | -9.13585 | 352 ft | 0 kts | 258° |
| 2026-05-06 10:04 | 38.76886 | -9.13574 | 352 ft | 4 kts | 256° |
| 2026-05-06 10:04 | 38.76893 | -9.13547 | 357 ft | 0 kts | 248° |
| 2026-05-06 10:06 | 38.76903 | -9.13522 | 357 ft | 4 kts | 233° |
| 2026-05-06 10:06 | 38.76921 | -9.13501 | 358 ft | 4 kts | 192° |
| 2026-05-06 10:07 | 38.76931 | -9.13500 | 357 ft | 1 kts | 167° |
| 2026-05-06 10:13 | 38.76923 | -9.13498 | 351 ft | 3 kts | 170° |
| 2026-05-06 10:14 | 38.76891 | -9.13495 | 350 ft | 6 kts | 178° |
| 2026-05-06 10:14 | 38.76835 | -9.13477 | 350 ft | 10 kts | 165° |
| 2026-05-06 10:14 | 38.76758 | -9.13450 | 351 ft | 12 kts | 165° |
| 2026-05-06 10:14 | 38.76669 | -9.13450 | 352 ft | 14 kts | 220° |
| 2026-05-06 10:15 | 38.76642 | -9.13560 | 358 ft | 11 kts | 259° |
| 2026-05-06 10:15 | 38.76625 | -9.13667 | 354 ft | 13 kts | 256° |
| 2026-05-06 10:15 | 38.76604 | -9.13792 | 351 ft | 15 kts | 257° |
| 2026-05-06 10:15 | 38.76585 | -9.13908 | 360 ft | 17 kts | 258° |
| 2026-05-06 10:16 | 38.76567 | -9.13998 | 354 ft | 12 kts | 239° |
| 2026-05-06 10:16 | 38.76518 | -9.14092 | 355 ft | 14 kts | 229° |
| 2026-05-06 10:16 | 38.76494 | -9.14150 | 354 ft | 7 kts | 270° |
| 2026-05-06 10:16 | 38.76509 | -9.14212 | 350 ft | 8 kts | 288° |
| 2026-05-06 10:17 | 38.76525 | -9.14268 | 344 ft | 5 kts | 290° |
| 2026-05-06 10:17 | 38.76536 | -9.14305 | 350 ft | 0 kts | 293° |
| 2026-05-06 10:17 | 38.76537 | -9.14306 | 350 ft | 1 kts | 293° |
| 2026-05-06 10:17 | 38.76541 | -9.14318 | 346 ft | 2 kts | 293° |
| 2026-05-06 10:18 | 38.76550 | -9.14346 | 348 ft | 5 kts | 293° |
| 2026-05-06 10:18 | 38.76566 | -9.14391 | 337 ft | 6 kts | 298° |
| 2026-05-06 10:18 | 38.76612 | -9.14403 | 340 ft | 9 kts | 16° |
| 2026-05-06 10:18 | 38.76627 | -9.14397 | 349 ft | 0 kts | 20° |
| 2026-05-06 10:19 | 38.76628 | -9.14397 | 349 ft | 0 kts | 20° |
| 2026-05-06 10:19 | 38.76640 | -9.14390 | 351 ft | 3 kts | 22° |
| 2026-05-06 10:19 | 38.76649 | -9.14386 | 349 ft | 0 kts | 22° |
| 2026-05-06 10:20 | 38.76660 | -9.14380 | 345 ft | 3 kts | 22° |
| 2026-05-06 10:21 | 38.76703 | -9.14357 | 351 ft | 18 kts | 22° |
| 2026-05-06 10:21 | 38.77038 | -9.14184 | 358 ft | 83 kts | 22° |
| 2026-05-06 10:21 | 38.77741 | -9.13803 | 371 ft | 134 kts | 22° |
| 2026-05-06 10:21 | 38.78696 | -9.13294 | 524 ft | 158 kts | 20° |
| 2026-05-06 10:22 | 38.79696 | -9.12743 | 1120 ft | 160 kts | 21° |
| 2026-05-06 10:22 | 38.80730 | -9.12122 | 1554 ft | 168 kts | 22° |
| 2026-05-06 10:22 | 38.81850 | -9.11505 | 2015 ft | 182 kts | 21° |
| 2026-05-06 10:22 | 38.82992 | -9.10647 | 2523 ft | 202 kts | 40° |
| 2026-05-06 10:23 | 38.83939 | -9.09135 | 2987 ft | 232 kts | 53° |
| 2026-05-06 10:23 | 38.84888 | -9.07390 | 3568 ft | 250 kts | 52° |
| 2026-05-06 10:23 | 38.85901 | -9.05536 | 4434 ft | 256 kts | 52° |
| 2026-05-06 10:23 | 38.86934 | -9.03659 | 5382 ft | 259 kts | 52° |
| 2026-05-06 10:24 | 38.87985 | -9.01760 | 6304 ft | 263 kts | 52° |
| 2026-05-06 10:24 | 38.89128 | -8.99896 | 7173 ft | 266 kts | 45° |
| 2026-05-06 10:24 | 38.90426 | -8.98227 | 8001 ft | 272 kts | 42° |
| 2026-05-06 10:24 | 38.91786 | -8.96538 | 8889 ft | 276 kts | 41° |
| 2026-05-06 10:25 | 38.93203 | -8.94782 | 9784 ft | 282 kts | 43° |
| 2026-05-06 10:25 | 38.94620 | -8.93006 | 10400 ft | 297 kts | 43° |
| 2026-05-06 10:25 | 38.96152 | -8.91075 | 10743 ft | 320 kts | 43° |
| 2026-05-06 10:25 | 38.97793 | -8.88994 | 11089 ft | 341 kts | 43° |
| 2026-05-06 10:26 | 38.98201 | -8.88475 | 11199 ft | 345 kts | 43° |
| 2026-05-06 10:26 | 38.99929 | -8.86272 | 11880 ft | 353 kts | 43° |
| 2026-05-06 10:26 | 39.01649 | -8.84086 | 12656 ft | 358 kts | 43° |
| 2026-05-06 10:26 | 39.03455 | -8.81793 | 13466 ft | 362 kts | 43° |
| 2026-05-06 10:27 | 39.05259 | -8.79486 | 14203 ft | 367 kts | 43° |
| 2026-05-06 10:27 | 39.07072 | -8.77160 | 14883 ft | 372 kts | 43° |
| 2026-05-06 10:27 | 39.08924 | -8.74795 | 15561 ft | 377 kts | 43° |
| 2026-05-06 10:27 | 39.10776 | -8.72439 | 16217 ft | 382 kts | 43° |
| 2026-05-06 10:28 | 39.12676 | -8.70011 | 16886 ft | 387 kts | 43° |
| 2026-05-06 10:28 | 39.14605 | -8.67538 | 17542 ft | 391 kts | 43° |
| 2026-05-06 10:28 | 39.16549 | -8.65039 | 18185 ft | 396 kts | 43° |
| 2026-05-06 10:28 | 39.18561 | -8.62666 | 18717 ft | 398 kts | 33° |
| 2026-05-06 10:29 | 39.21024 | -8.61053 | 19242 ft | 396 kts | 14° |
| 2026-05-06 10:29 | 39.23723 | -8.60447 | 19798 ft | 394 kts | 1° |
| 2026-05-06 10:29 | 39.26473 | -8.60221 | 20343 ft | 398 kts | 0° |
| 2026-05-06 10:29 | 39.29238 | -8.59992 | 20889 ft | 401 kts | 1° |
| 2026-05-06 10:30 | 39.32040 | -8.59715 | 21435 ft | 405 kts | 1° |
| 2026-05-06 10:30 | 39.34825 | -8.59411 | 21884 ft | 408 kts | 2° |
| 2026-05-06 10:30 | 39.37648 | -8.59089 | 22034 ft | 410 kts | 2° |
| 2026-05-06 10:30 | 39.40492 | -8.58760 | 22049 ft | 410 kts | 2° |
| 2026-05-06 10:31 | 39.43337 | -8.58426 | 22040 ft | 410 kts | 2° |
| 2026-05-06 10:31 | 39.46186 | -8.58092 | 22031 ft | 410 kts | 2° |
| 2026-05-06 10:31 | 39.49028 | -8.57761 | 22038 ft | 410 kts | 2° |
| 2026-05-06 10:31 | 39.51867 | -8.57430 | 22032 ft | 409 kts | 2° |
| 2026-05-06 10:32 | 39.54710 | -8.57097 | 22029 ft | 409 kts | 2° |
| 2026-05-06 10:32 | 39.57517 | -8.56771 | 22026 ft | 409 kts | 2° |
| 2026-05-06 10:32 | 39.60357 | -8.56439 | 22031 ft | 409 kts | 2° |
| 2026-05-06 10:32 | 39.63196 | -8.56105 | 22030 ft | 409 kts | 2° |
| 2026-05-06 10:33 | 39.66028 | -8.55775 | 22032 ft | 409 kts | 2° |
| 2026-05-06 10:33 | 39.68875 | -8.55441 | 22033 ft | 409 kts | 2° |
| 2026-05-06 10:33 | 39.71698 | -8.55109 | 22040 ft | 409 kts | 2° |
| 2026-05-06 10:33 | 39.74509 | -8.54779 | 22038 ft | 417 kts | 2° |
| 2026-05-06 10:34 | 39.77437 | -8.54437 | 22043 ft | 433 kts | 3° |
| 2026-05-06 10:34 | 39.80487 | -8.54082 | 22048 ft | 448 kts | 3° |
| 2026-05-06 10:34 | 39.83583 | -8.53721 | 22055 ft | 461 kts | 3° |
| 2026-05-06 10:34 | 39.86859 | -8.53333 | 22054 ft | 471 kts | 3° |
| 2026-05-06 10:35 | 39.90112 | -8.52942 | 22047 ft | 472 kts | 3° |
| 2026-05-06 10:35 | 39.93396 | -8.52549 | 22040 ft | 472 kts | 3° |
| 2026-05-06 10:35 | 39.96616 | -8.52167 | 22049 ft | 471 kts | 3° |
| 2026-05-06 10:35 | 39.99878 | -8.51780 | 22046 ft | 470 kts | 3° |
| 2026-05-06 10:36 | 40.03145 | -8.51393 | 22042 ft | 470 kts | 3° |
| 2026-05-06 10:36 | 40.06397 | -8.51010 | 22041 ft | 470 kts | 3° |
| 2026-05-06 10:36 | 40.09671 | -8.50622 | 22041 ft | 470 kts | 3° |
| 2026-05-06 10:36 | 40.12852 | -8.50243 | 21980 ft | 447 kts | 3° |
| 2026-05-06 10:37 | 40.15919 | -8.49879 | 21367 ft | 438 kts | 3° |
| 2026-05-06 10:37 | 40.18894 | -8.49527 | 20614 ft | 433 kts | 3° |
| 2026-05-06 10:37 | 40.21874 | -8.49174 | 19921 ft | 429 kts | 3° |
| 2026-05-06 10:37 | 40.24836 | -8.48821 | 19347 ft | 426 kts | 3° |
| 2026-05-06 10:38 | 40.27748 | -8.48473 | 18842 ft | 423 kts | 3° |
| 2026-05-06 10:38 | 40.30679 | -8.48123 | 18349 ft | 420 kts | 4° |
| 2026-05-06 10:38 | 40.33580 | -8.47776 | 17796 ft | 417 kts | 4° |
| 2026-05-06 10:38 | 40.35527 | -8.47543 | 17439 ft | 417 kts | 4° |
| 2026-05-06 10:39 | 40.38422 | -8.47198 | 16922 ft | 418 kts | 4° |
| 2026-05-06 10:39 | 40.41277 | -8.46856 | 16421 ft | 414 kts | 4° |
| 2026-05-06 10:39 | 40.44140 | -8.46513 | 15916 ft | 411 kts | 4° |
| 2026-05-06 10:39 | 40.46974 | -8.46172 | 15428 ft | 408 kts | 4° |
| 2026-05-06 10:40 | 40.49796 | -8.45835 | 14955 ft | 404 kts | 4° |
| 2026-05-06 10:40 | 40.52591 | -8.45500 | 14480 ft | 401 kts | 4° |
| 2026-05-06 10:40 | 40.55322 | -8.45172 | 14000 ft | 398 kts | 4° |
| 2026-05-06 10:40 | 40.58083 | -8.44839 | 13491 ft | 392 kts | 4° |
| 2026-05-06 10:41 | 40.60755 | -8.44516 | 13089 ft | 380 kts | 4° |
| 2026-05-06 10:41 | 40.63348 | -8.44203 | 12772 ft | 366 kts | 4° |
| 2026-05-06 10:41 | 40.65863 | -8.43899 | 12226 ft | 361 kts | 4° |
| 2026-05-06 10:41 | 40.68436 | -8.43589 | 11533 ft | 382 kts | 4° |
| 2026-05-06 10:42 | 40.71032 | -8.43365 | 11109 ft | 372 kts | 358° |
| 2026-05-06 10:42 | 40.73512 | -8.43970 | 10855 ft | 356 kts | 340° |
| 2026-05-06 10:42 | 40.75712 | -8.45237 | 10679 ft | 340 kts | 333° |
| 2026-05-06 10:42 | 40.77769 | -8.46658 | 10521 ft | 326 kts | 332° |
| 2026-05-06 10:43 | 40.79732 | -8.48041 | 10366 ft | 314 kts | 332° |
| 2026-05-06 10:43 | 40.81613 | -8.49371 | 10236 ft | 301 kts | 332° |
| 2026-05-06 10:43 | 40.83430 | -8.50659 | 10080 ft | 290 kts | 332° |
| 2026-05-06 10:44 | 40.86917 | -8.53138 | 9285 ft | 286 kts | 332° |
| 2026-05-06 10:44 | 40.88684 | -8.54402 | 8756 ft | 289 kts | 332° |
| 2026-05-06 10:44 | 40.90453 | -8.55667 | 8396 ft | 285 kts | 332° |
| 2026-05-06 10:44 | 40.91204 | -8.56204 | 8294 ft | 282 kts | 332° |
| 2026-05-06 10:45 | 40.92893 | -8.57407 | 8089 ft | 274 kts | 333° |
| 2026-05-06 10:45 | 40.94408 | -8.58462 | 7680 ft | 276 kts | 333° |
| 2026-05-06 10:45 | 40.95254 | -8.59044 | 7469 ft | 276 kts | 333° |
| 2026-05-06 10:45 | 40.96949 | -8.60208 | 7242 ft | 269 kts | 333° |
| 2026-05-06 10:46 | 40.98608 | -8.61240 | 7068 ft | 258 kts | 342° |
| 2026-05-06 10:46 | 41.00329 | -8.61812 | 6671 ft | 254 kts | 349° |
| 2026-05-06 10:46 | 41.02049 | -8.62248 | 6490 ft | 246 kts | 350° |
| 2026-05-06 10:46 | 41.03692 | -8.62667 | 6272 ft | 240 kts | 350° |
| 2026-05-06 10:47 | 41.05345 | -8.63097 | 5865 ft | 243 kts | 349° |
| 2026-05-06 10:47 | 41.07029 | -8.63542 | 5339 ft | 250 kts | 349° |
| 2026-05-06 10:47 | 41.08742 | -8.64001 | 4764 ft | 250 kts | 349° |
| 2026-05-06 10:47 | 41.10413 | -8.64452 | 4261 ft | 245 kts | 349° |
| 2026-05-06 10:48 | 41.12024 | -8.64873 | 3966 ft | 231 kts | 350° |
| 2026-05-06 10:48 | 41.13533 | -8.65236 | 3821 ft | 208 kts | 351° |
| 2026-05-06 10:48 | 41.14946 | -8.65572 | 3204 ft | 202 kts | 351° |
| 2026-05-06 10:48 | 41.16292 | -8.65893 | 2591 ft | 198 kts | 350° |
| 2026-05-06 10:49 | 41.17633 | -8.66241 | 1941 ft | 194 kts | 349° |
| 2026-05-06 10:49 | 41.18232 | -8.66401 | 1634 ft | 194 kts | 349° |